createdAt,value
2023-03-26T00:01:45.806Z,71.78
2023-03-26T00:04:14.520Z,71.72
2023-03-26T00:06:43.629Z,71.81
2023-03-26T00:09:12.954Z,71.81
2023-03-26T00:11:42.221Z,71.68
2023-03-26T00:14:13.067Z,71.72
2023-03-26T00:16:42.058Z,71.66
2023-03-26T00:19:12.007Z,71.71
2023-03-26T00:21:41.141Z,71.69
2023-03-26T00:24:14.357Z,71.79
2023-03-26T00:26:43.998Z,71.89
2023-03-26T00:29:13.209Z,71.85
2023-03-26T00:31:45.515Z,71.80
2023-03-26T00:34:17.580Z,72.00
2023-03-26T00:36:46.616Z,72.19
2023-03-26T00:39:17.083Z,72.20
2023-03-26T00:41:45.845Z,72.24
2023-03-26T00:44:14.563Z,72.34
2023-03-26T00:46:43.385Z,72.47
2023-03-26T00:49:14.098Z,72.55
2023-03-26T00:51:43.195Z,72.68
2023-03-26T00:54:12.825Z,72.73
2023-03-26T00:56:41.651Z,72.78
2023-03-26T00:59:10.612Z,73.24
2023-03-26T01:01:39.423Z,73.18
2023-03-26T01:04:29.725Z,73.21
2023-03-26T01:07:01.170Z,73.09
2023-03-26T01:09:34.882Z,73.29
2023-03-26T01:12:06.961Z,73.32
2023-03-26T01:14:34.947Z,73.22
2023-03-26T01:17:06.642Z,73.33
2023-03-26T01:19:44.091Z,73.11
2023-03-26T01:22:16.233Z,73.05
2023-03-26T01:24:45.599Z,72.98
2023-03-26T01:27:26.113Z,72.95
2023-03-26T01:29:58.357Z,72.67
2023-03-26T01:32:40.410Z,72.91
2023-03-26T01:35:18.928Z,72.77
2023-03-26T01:38:01.473Z,72.80
2023-03-26T01:40:37.981Z,72.55
2023-03-26T01:43:12.722Z,72.45
2023-03-26T01:45:45.350Z,72.64
2023-03-26T01:48:14.281Z,72.49
2023-03-26T01:50:43.023Z,72.39
2023-03-26T01:53:13.420Z,72.17
2023-03-26T01:55:55.504Z,72.11
2023-03-26T01:58:31.345Z,72.07
2023-03-26T02:01:13.704Z,71.93
2023-03-26T02:03:44.918Z,71.89
2023-03-26T02:06:20.755Z,71.88
2023-03-26T02:08:54.116Z,71.82
2023-03-26T02:11:23.418Z,71.89
2023-03-26T02:13:52.987Z,71.74
2023-03-26T02:16:22.212Z,71.87
2023-03-26T02:18:55.232Z,71.59
2023-03-26T02:21:25.503Z,71.58
2023-03-26T02:24:02.024Z,71.61
2023-03-26T02:26:34.101Z,71.59
2023-03-26T02:29:13.428Z,71.59
2023-03-26T02:31:43.703Z,71.60
2023-03-26T02:34:12.520Z,71.66
2023-03-26T02:36:42.627Z,71.71
2023-03-26T02:39:13.731Z,71.47
2023-03-26T02:41:43.746Z,71.62
2023-03-26T02:44:13.782Z,71.56
2023-03-26T02:47:00.828Z,71.47
2023-03-26T02:49:48.021Z,71.42
2023-03-26T02:52:37.426Z,71.36
2023-03-26T02:55:07.192Z,71.48
2023-03-26T02:57:36.509Z,71.67
2023-03-26T03:00:22.065Z,71.88
2023-03-26T03:02:57.685Z,72.22
2023-03-26T03:05:33.628Z,72.20
2023-03-26T03:08:26.087Z,72.34
2023-03-26T03:11:21.498Z,72.67
2023-03-26T03:13:52.269Z,72.32
2023-03-26T03:16:25.773Z,72.44
2023-03-26T03:18:57.299Z,72.33
2023-03-26T03:21:29.061Z,72.29
2023-03-26T03:24:00.037Z,72.31
2023-03-26T03:26:30.162Z,72.45
2023-03-26T03:29:00.651Z,72.44
2023-03-26T03:31:29.494Z,72.46
2023-03-26T03:34:02.581Z,72.65
2023-03-26T03:36:33.013Z,72.59
2023-03-26T03:39:07.070Z,72.64
2023-03-26T03:41:36.215Z,72.73
2023-03-26T03:44:06.255Z,72.94
2023-03-26T03:46:36.030Z,72.89
2023-03-26T03:49:04.804Z,72.84
2023-03-26T03:51:37.296Z,72.67
2023-03-26T03:54:17.437Z,72.66
2023-03-26T03:56:48.908Z,72.68
2023-03-26T03:59:53.016Z,72.49
2023-03-26T04:02:29.631Z,72.42
2023-03-26T04:05:00.827Z,72.39
2023-03-26T04:07:31.682Z,72.36
2023-03-26T04:10:09.542Z,72.08
2023-03-26T04:12:58.236Z,72.15
2023-03-26T04:15:43.543Z,72.05
2023-03-26T04:18:12.376Z,72.07
2023-03-26T04:20:45.856Z,71.81
2023-03-26T04:23:18.421Z,72.14
2023-03-26T04:25:53.132Z,72.07
2023-03-26T04:28:29.828Z,71.99
2023-03-26T04:31:23.431Z,72.22
2023-03-26T04:33:54.626Z,72.15
2023-03-26T04:36:28.310Z,72.18
2023-03-26T04:39:01.803Z,72.35
2023-03-26T04:41:49.089Z,72.38
2023-03-26T04:44:21.941Z,72.39
2023-03-26T04:46:56.390Z,72.31
2023-03-26T04:49:30.892Z,72.23
2023-03-26T04:51:59.829Z,72.30
2023-03-26T04:54:51.719Z,72.09
2023-03-26T04:57:25.388Z,72.24
2023-03-26T05:00:00.177Z,72.19
2023-03-26T05:02:33.522Z,72.05
2023-03-26T05:05:05.815Z,72.15
2023-03-26T05:07:35.179Z,72.11
2023-03-26T05:10:05.209Z,72.14
2023-03-26T05:13:06.039Z,72.19
2023-03-26T05:15:41.986Z,72.26
2023-03-26T05:18:10.653Z,72.18
2023-03-26T05:20:48.749Z,71.99
2023-03-26T05:23:17.447Z,71.84
2023-03-26T05:25:57.009Z,71.70
2023-03-26T05:28:48.514Z,71.73
2023-03-26T05:31:34.447Z,71.79
2023-03-26T05:34:17.022Z,71.54
2023-03-26T05:37:01.226Z,71.47
2023-03-26T05:40:00.051Z,71.56
2023-03-26T05:42:46.952Z,71.58
2023-03-26T05:45:49.273Z,71.49
2023-03-26T05:48:33.366Z,71.58
2023-03-26T05:54:00.030Z,71.22
2023-03-26T05:56:57.866Z,71.29
2023-03-26T05:59:47.276Z,71.48
2023-03-26T06:02:42.462Z,71.58
2023-03-26T06:05:33.577Z,71.44
2023-03-26T06:08:12.152Z,71.60
2023-03-26T06:10:40.790Z,71.55
2023-03-26T06:13:09.966Z,71.57
2023-03-26T06:15:40.676Z,71.54
2023-03-26T06:18:20.013Z,71.60
2023-03-26T06:21:01.373Z,71.58
2023-03-26T06:23:41.325Z,71.61
2023-03-26T06:26:37.298Z,71.46
2023-03-26T06:29:26.708Z,71.05
2023-03-26T06:32:36.777Z,70.48
2023-03-26T06:35:12.364Z,70.47
2023-03-26T06:37:56.671Z,70.53
2023-03-26T06:40:29.448Z,70.40
2023-03-26T06:43:15.724Z,69.62
2023-03-26T06:45:58.895Z,69.16
2023-03-26T06:48:42.353Z,68.45
2023-03-26T06:51:20.383Z,68.78
2023-03-26T06:54:08.452Z,68.11
2023-03-26T06:57:05.869Z,66.59
2023-03-26T06:59:57.862Z,65.37
2023-03-26T07:03:03.742Z,63.50
2023-03-26T07:05:53.443Z,63.71
2023-03-26T07:08:41.941Z,62.88
2023-03-26T07:11:34.020Z,61.55
2023-03-26T07:14:27.340Z,61.53
2023-03-26T07:17:09.579Z,60.93
2023-03-26T07:19:53.832Z,61.30
2023-03-26T07:22:29.186Z,61.27
2023-03-26T07:25:10.335Z,61.36
2023-03-26T07:28:04.968Z,62.07
2023-03-26T07:31:00.061Z,61.93
2023-03-26T07:33:49.265Z,61.69
2023-03-26T07:36:57.117Z,61.84
2023-03-26T07:39:44.242Z,62.27
2023-03-26T07:42:34.430Z,61.80
2023-03-26T07:45:25.803Z,62.37
2023-03-26T07:48:17.073Z,62.49
2023-03-26T07:51:11.169Z,63.02
2023-03-26T07:54:27.743Z,62.75
2023-03-26T07:57:34.620Z,62.54
2023-03-26T08:00:44.396Z,62.95
2023-03-26T08:03:34.682Z,62.71
2023-03-26T08:06:32.432Z,62.72
2023-03-26T08:09:20.020Z,62.89
2023-03-26T08:12:24.564Z,62.58
2023-03-26T08:15:12.019Z,61.66
2023-03-26T08:17:57.316Z,61.44
2023-03-26T08:20:42.912Z,60.27
2023-03-26T08:23:27.065Z,59.76
2023-03-26T08:26:19.626Z,59.06
2023-03-26T08:29:18.098Z,58.90
2023-03-26T08:31:53.851Z,59.28
2023-03-26T08:34:47.500Z,59.67
2023-03-26T08:37:21.060Z,58.31
2023-03-26T08:39:54.036Z,57.36
2023-03-26T08:43:01.682Z,55.70
2023-03-26T08:45:53.125Z,55.50
2023-03-26T08:49:03.661Z,53.76
2023-03-26T08:52:09.626Z,54.67
2023-03-26T08:54:56.860Z,51.57
2023-03-26T08:57:56.088Z,52.33
2023-03-26T09:00:53.427Z,50.82
2023-03-26T09:03:38.177Z,50.05
2023-03-26T09:06:29.097Z,49.91
2023-03-26T09:09:31.351Z,49.38
2023-03-26T09:12:23.780Z,49.16
2023-03-26T09:15:23.478Z,47.54
2023-03-26T09:18:25.072Z,47.26
2023-03-26T09:21:27.370Z,47.66
2023-03-26T09:24:32.426Z,48.09
2023-03-26T09:27:16.026Z,48.41
2023-03-26T09:30:10.897Z,49.65
2023-03-26T09:33:17.926Z,50.33
2023-03-26T09:36:02.141Z,50.82
2023-03-26T09:38:43.042Z,51.78
2023-03-26T09:41:18.284Z,52.00
2023-03-26T09:44:08.205Z,52.62
2023-03-26T09:46:46.700Z,51.11
2023-03-26T09:49:44.952Z,51.02
2023-03-26T09:52:35.505Z,50.21
2023-03-26T09:55:39.288Z,50.46
2023-03-26T09:58:29.884Z,50.78
2023-03-26T10:01:10.561Z,50.43
2023-03-26T10:03:56.326Z,50.49
2023-03-26T10:06:40.235Z,50.27
2023-03-26T10:09:25.097Z,50.81
2023-03-26T10:12:18.595Z,50.57
2023-03-26T10:14:59.445Z,50.09
2023-03-26T10:17:38.514Z,49.97
2023-03-26T10:20:27.047Z,50.03
2023-03-26T10:23:09.156Z,50.01
2023-03-26T10:25:44.363Z,50.37
2023-03-26T10:28:32.006Z,50.58
2023-03-26T10:31:23.964Z,50.25
2023-03-26T10:34:02.640Z,50.87
2023-03-26T10:36:34.460Z,51.32
2023-03-26T10:39:37.622Z,51.59
2023-03-26T10:42:21.022Z,52.55
2023-03-26T10:45:00.313Z,52.29
2023-03-26T10:48:10.240Z,52.71
2023-03-26T10:51:04.338Z,53.50
2023-03-26T10:53:39.230Z,53.63
2023-03-26T10:56:18.016Z,53.26
2023-03-26T10:58:49.345Z,53.18
2023-03-26T11:01:23.892Z,52.87
2023-03-26T11:03:55.090Z,53.22
2023-03-26T11:06:36.078Z,53.27
2023-03-26T11:09:16.402Z,54.44
2023-03-26T11:11:53.491Z,54.96
2023-03-26T11:14:34.739Z,54.59
2023-03-26T11:17:40.734Z,52.30
2023-03-26T11:20:16.593Z,52.29
2023-03-26T11:22:59.015Z,52.21
2023-03-26T11:25:37.804Z,52.41
2023-03-26T11:28:22.905Z,52.38
2023-03-26T11:31:08.294Z,50.75
2023-03-26T11:33:46.073Z,50.40
2023-03-26T11:36:21.717Z,50.29
2023-03-26T11:39:03.648Z,50.62
2023-03-26T11:41:35.088Z,50.23
2023-03-26T11:44:18.990Z,50.20
2023-03-26T11:46:52.148Z,50.33
2023-03-26T11:49:23.558Z,49.46
2023-03-26T11:51:58.929Z,49.24
2023-03-26T11:54:28.443Z,48.68
2023-03-26T11:57:04.524Z,48.77
2023-03-26T11:59:55.647Z,48.37
2023-03-26T12:02:29.332Z,48.45
2023-03-26T12:05:18.881Z,48.30
2023-03-26T12:08:01.865Z,48.85
2023-03-26T12:10:38.540Z,48.44
2023-03-26T12:13:33.450Z,48.50
2023-03-26T12:16:12.451Z,47.92
2023-03-26T12:18:43.296Z,48.14
2023-03-26T12:21:21.334Z,48.04
2023-03-26T12:24:01.308Z,48.05
2023-03-26T12:26:48.115Z,48.71
2023-03-26T12:29:19.818Z,49.39
2023-03-26T12:31:56.903Z,49.39
2023-03-26T12:34:34.432Z,49.18
2023-03-26T12:37:04.939Z,49.36
2023-03-26T12:40:10.094Z,49.42
2023-03-26T12:44:51.245Z,49.01
2023-03-26T12:47:54.230Z,48.79
2023-03-26T12:48:38.388Z,48.71
2023-03-26T12:51:17.530Z,48.64
2023-03-26T12:54:01.480Z,48.72
2023-03-26T12:56:38.754Z,48.61
2023-03-26T12:59:29.587Z,48.33
2023-03-26T13:02:06.653Z,48.61
2023-03-26T13:05:05.134Z,49.94
2023-03-26T13:07:52.071Z,50.02
2023-03-26T13:10:49.277Z,50.34
2023-03-26T13:13:36.798Z,50.09
2023-03-26T13:16:14.443Z,48.77
2023-03-26T13:18:50.701Z,48.41
2023-03-26T13:21:39.226Z,48.66
2023-03-26T13:24:23.107Z,49.41
2023-03-26T13:27:04.643Z,50.06
2023-03-26T13:29:46.235Z,49.86
2023-03-26T13:32:24.825Z,49.93
2023-03-26T13:35:07.759Z,49.91
2023-03-26T13:37:45.340Z,50.32
2023-03-26T13:40:24.859Z,51.20
2023-03-26T13:43:19.050Z,51.91
2023-03-26T13:45:56.380Z,52.10
2023-03-26T13:48:30.049Z,53.07
2023-03-26T13:51:06.645Z,53.39
2023-03-26T13:53:43.479Z,53.43
2023-03-26T13:56:16.198Z,52.80
2023-03-26T13:58:50.017Z,52.79
2023-03-26T14:01:44.201Z,52.74
2023-03-26T14:04:31.945Z,52.65
2023-03-26T14:07:15.091Z,52.44
2023-03-26T14:09:54.581Z,53.04
2023-03-26T14:12:49.599Z,52.84
2023-03-26T14:15:26.558Z,53.21
2023-03-26T14:18:03.096Z,53.24
2023-03-26T14:21:02.912Z,53.52
2023-03-26T14:24:02.559Z,53.74
2023-03-26T14:26:50.072Z,54.23
2023-03-26T14:29:57.080Z,54.70
2023-03-26T14:32:42.492Z,55.28
2023-03-26T14:35:32.967Z,55.58
2023-03-26T14:38:32.304Z,56.07
2023-03-26T14:41:11.640Z,56.87
2023-03-26T14:44:19.295Z,57.10
2023-03-26T14:47:05.559Z,57.45
2023-03-26T14:50:15.138Z,57.58
2023-03-26T14:52:48.556Z,57.55
2023-03-26T14:55:37.741Z,57.57
2023-03-26T14:58:37.041Z,57.53
2023-03-26T15:01:25.321Z,57.79
2023-03-26T15:04:42.980Z,58.15
2023-03-26T15:07:40.520Z,58.57
2023-03-26T15:10:56.158Z,58.49
2023-03-26T15:13:49.518Z,58.35
2023-03-26T15:16:38.984Z,58.23
2023-03-26T15:19:54.594Z,57.97
2023-03-26T15:22:47.863Z,57.65
2023-03-26T15:25:51.113Z,57.68
2023-03-26T15:28:52.221Z,57.99
2023-03-26T15:31:49.740Z,57.84
2023-03-26T15:34:55.016Z,57.81
2023-03-26T15:38:08.594Z,57.80
2023-03-26T15:41:04.509Z,57.56
2023-03-26T15:44:24.098Z,57.63
2023-03-26T15:47:27.142Z,57.86
2023-03-26T15:50:16.716Z,57.61
2023-03-26T15:52:57.755Z,58.50
2023-03-26T15:55:35.968Z,59.21
2023-03-26T15:58:15.468Z,59.56
2023-03-26T16:00:54.938Z,59.87
2023-03-26T16:03:33.975Z,60.05
2023-03-26T16:06:27.605Z,60.58
2023-03-26T16:09:09.051Z,60.33
2023-03-26T16:11:55.961Z,59.91
2023-03-26T16:14:42.008Z,59.75
2023-03-26T16:17:17.263Z,59.83
2023-03-26T16:19:54.797Z,59.95
2023-03-26T16:22:44.827Z,60.00
2023-03-26T16:25:28.864Z,59.86
2023-03-26T16:28:28.431Z,59.99
2023-03-26T16:31:38.268Z,59.72
2023-03-26T16:34:26.549Z,59.83
2023-03-26T16:36:58.445Z,60.07
2023-03-26T16:39:40.191Z,60.42
2023-03-26T16:42:34.714Z,61.27
2023-03-26T16:45:17.493Z,61.92
2023-03-26T16:47:58.001Z,61.92
2023-03-26T16:50:33.338Z,61.97
2023-03-26T16:53:13.227Z,61.99
2023-03-26T16:55:47.297Z,62.45
2023-03-26T16:58:29.537Z,62.87
2023-03-26T17:01:10.509Z,63.19
2023-03-26T17:03:51.497Z,63.60
2023-03-26T17:06:28.754Z,63.80
2023-03-26T17:09:17.585Z,64.06
2023-03-26T17:11:56.003Z,64.56
2023-03-26T17:14:39.733Z,64.77
2023-03-26T17:17:37.577Z,65.05
2023-03-26T17:20:17.611Z,65.39
2023-03-26T17:22:51.213Z,65.47
2023-03-26T17:25:35.922Z,65.64
2023-03-26T17:28:41.479Z,66.03
2023-03-26T17:31:20.023Z,66.67
2023-03-26T17:33:50.101Z,66.92
2023-03-26T17:36:31.788Z,66.82
2023-03-26T17:39:16.550Z,66.95
2023-03-26T17:42:18.153Z,66.89
2023-03-26T17:44:52.327Z,66.51
2023-03-26T17:47:32.294Z,66.35
2023-03-26T17:50:07.193Z,66.30
2023-03-26T17:52:47.480Z,66.42
2023-03-26T17:55:20.854Z,66.40
2023-03-26T17:57:52.760Z,66.33
2023-03-26T18:00:29.582Z,66.28
2023-03-26T18:03:02.843Z,66.49
2023-03-26T18:05:33.081Z,66.45
2023-03-26T18:08:46.598Z,66.65
2023-03-26T18:11:39.835Z,66.48
2023-03-26T18:14:43.111Z,66.37
2023-03-26T18:17:12.402Z,64.89
2023-03-26T18:19:48.969Z,64.50
2023-03-26T18:22:58.733Z,63.93
2023-03-26T18:25:31.957Z,63.85
2023-03-26T18:28:01.799Z,64.44
2023-03-26T18:30:30.643Z,64.70
2023-03-26T18:33:02.736Z,64.83
2023-03-26T18:35:40.967Z,65.01
2023-03-26T18:38:18.723Z,65.71
2023-03-26T18:41:05.997Z,66.56
2023-03-26T18:43:36.049Z,67.17
2023-03-26T18:46:18.262Z,67.68
2023-03-26T18:48:50.046Z,68.22
2023-03-26T18:51:22.336Z,68.81
2023-03-26T18:53:54.717Z,69.54
2023-03-26T18:56:39.726Z,70.12
2023-03-26T18:59:28.953Z,70.70
2023-03-26T19:01:59.287Z,70.79
2023-03-26T19:04:31.122Z,71.12
2023-03-26T19:07:00.989Z,71.49
2023-03-26T19:09:32.487Z,71.69
2023-03-26T19:12:07.947Z,71.72
2023-03-26T19:14:53.292Z,71.89
2023-03-26T19:17:23.260Z,72.12
2023-03-26T19:19:52.148Z,72.12
2023-03-26T19:22:23.155Z,72.26
2023-03-26T19:24:56.363Z,72.55
2023-03-26T19:27:25.513Z,72.95
2023-03-26T19:29:54.536Z,73.25
2023-03-26T19:32:31.595Z,73.44
2023-03-26T19:35:01.516Z,73.90
2023-03-26T19:37:31.179Z,74.02
2023-03-26T19:40:12.119Z,74.11
2023-03-26T19:42:44.517Z,73.99
2023-03-26T19:45:17.644Z,74.32
2023-03-26T19:47:48.473Z,74.05
2023-03-26T19:50:25.336Z,73.88
2023-03-26T19:53:16.779Z,74.07
2023-03-26T19:55:54.980Z,73.87
2023-03-26T19:58:25.337Z,74.09
2023-03-26T20:00:55.789Z,74.03
2023-03-26T20:03:28.669Z,74.06
2023-03-26T20:05:57.520Z,74.44
2023-03-26T20:08:26.558Z,74.64
2023-03-26T20:10:56.248Z,74.56
2023-03-26T20:13:25.190Z,74.55
2023-03-26T20:16:05.071Z,74.52
2023-03-26T20:18:35.445Z,74.56
2023-03-26T20:21:10.918Z,74.58
2023-03-26T20:23:39.766Z,74.58
2023-03-26T20:26:12.944Z,74.39
2023-03-26T20:28:48.230Z,74.43
2023-03-26T20:31:21.265Z,74.52
2023-03-26T20:33:54.244Z,75.16
2023-03-26T20:36:33.857Z,75.15
2023-03-26T20:39:05.333Z,75.12
2023-03-26T20:41:35.188Z,75.13
2023-03-26T20:44:05.743Z,75.15
2023-03-26T20:46:34.469Z,75.20
2023-03-26T20:49:03.190Z,75.28
2023-03-26T20:51:31.825Z,75.43
2023-03-26T20:54:00.431Z,75.27
2023-03-26T20:56:29.157Z,75.26
2023-03-26T20:59:09.696Z,75.44
2023-03-26T21:01:39.117Z,75.47
2023-03-26T21:04:08.147Z,75.49
2023-03-26T21:06:36.823Z,75.41
2023-03-26T21:09:09.378Z,75.22
2023-03-26T21:11:49.801Z,75.19
2023-03-26T21:14:22.766Z,75.37
2023-03-26T21:16:52.807Z,75.44
2023-03-26T21:19:22.852Z,75.50
2023-03-26T21:22:05.174Z,75.85
2023-03-26T21:24:46.293Z,76.11
2023-03-26T21:27:24.594Z,76.48
2023-03-26T21:29:55.029Z,76.90
2023-03-26T21:32:24.866Z,76.84
2023-03-26T21:37:28.102Z,77.31
2023-03-26T21:39:59.254Z,77.44
2023-03-26T21:42:28.971Z,77.39
2023-03-26T21:44:58.584Z,77.48
2023-03-26T21:47:28.248Z,77.39
2023-03-26T21:49:57.828Z,77.60
2023-03-26T21:52:28.147Z,77.71
2023-03-26T21:55:00.047Z,78.07
2023-03-26T21:57:43.640Z,78.04
2023-03-26T22:00:18.140Z,78.09
2023-03-26T22:02:59.547Z,78.18
2023-03-26T22:05:37.085Z,78.27
2023-03-26T22:08:08.031Z,78.14
2023-03-26T22:10:36.840Z,78.16
2023-03-26T22:13:05.697Z,78.33
2023-03-26T22:15:34.867Z,78.23
2023-03-26T22:18:04.515Z,78.20
2023-03-26T22:20:33.450Z,78.01
2023-03-26T22:23:02.612Z,78.11
2023-03-26T22:25:32.300Z,78.12
2023-03-26T22:28:01.471Z,78.01
2023-03-26T22:30:30.334Z,77.81
2023-03-26T22:32:59.150Z,77.51
2023-03-26T22:35:27.908Z,77.90
2023-03-26T22:38:00.714Z,77.69
2023-03-26T22:40:30.034Z,78.06
2023-03-26T22:42:58.684Z,77.98
2023-03-26T22:45:27.518Z,78.08
2023-03-26T22:48:03.681Z,78.38
2023-03-26T22:50:34.297Z,78.41
2023-03-26T22:53:03.151Z,78.55
2023-03-26T22:55:31.771Z,78.84
2023-03-26T22:58:00.524Z,79.02
2023-03-26T23:00:30.125Z,78.95
2023-03-26T23:02:59.487Z,78.83
2023-03-26T23:05:28.678Z,78.97
2023-03-26T23:07:57.592Z,78.83
2023-03-26T23:10:26.200Z,78.76
2023-03-26T23:12:55.198Z,79.05
2023-03-26T23:15:25.264Z,79.15
2023-03-26T23:17:54.363Z,79.32
2023-03-26T23:20:23.672Z,79.04
2023-03-26T23:22:52.784Z,79.32
2023-03-26T23:25:21.527Z,79.24
2023-03-26T23:27:50.141Z,79.31
2023-03-26T23:30:19.012Z,79.10
2023-03-26T23:32:47.662Z,79.12
2023-03-26T23:35:16.858Z,78.93
2023-03-26T23:37:45.534Z,79.05
2023-03-26T23:40:15.096Z,79.07
2023-03-26T23:42:43.720Z,79.46
2023-03-26T23:45:13.066Z,79.51
2023-03-26T23:47:41.836Z,79.51
2023-03-26T23:50:12.224Z,79.36
2023-03-26T23:52:40.956Z,79.16
2023-03-26T23:55:10.533Z,79.28
2023-03-26T23:57:40.089Z,79.33
